createdAt,value
2023-02-07T00:02:09.156Z,12.18
2023-02-07T00:05:11.952Z,13.48
2023-02-07T00:08:15.094Z,13.95
2023-02-07T00:11:20.286Z,19.90
2023-02-07T00:14:22.913Z,9.23
2023-02-07T00:17:25.480Z,12.85
2023-02-07T00:20:28.006Z,20.27
2023-02-07T00:23:30.588Z,14.10
2023-02-07T00:26:34.469Z,19.48
2023-02-07T00:29:37.215Z,18.90
2023-02-07T00:32:39.739Z,21.30
2023-02-07T00:35:42.409Z,10.55
2023-02-07T00:38:45.244Z,19.83
2023-02-07T00:41:49.130Z,36.75
2023-02-07T00:44:51.657Z,38.10
2023-02-07T00:47:54.241Z,14.57
2023-02-07T00:50:56.988Z,16.63
2023-02-07T00:53:59.526Z,22.10
2023-02-07T00:57:03.461Z,41.80
2023-02-07T01:00:07.046Z,17.85
2023-02-07T01:03:09.649Z,13.70
2023-02-07T01:06:12.280Z,21.90
2023-02-07T01:09:14.860Z,31.80
2023-02-07T01:12:18.774Z,19.48
2023-02-07T01:15:21.556Z,21.27
2023-02-07T01:18:24.132Z,37.30
2023-02-07T01:21:27.177Z,10.15
2023-02-07T01:24:29.751Z,23.63
2023-02-07T01:27:33.780Z,16.30
2023-02-07T01:30:36.381Z,6.60
2023-02-07T01:33:39.120Z,8.65
2023-02-07T01:36:41.673Z,8.63
2023-02-07T01:39:44.285Z,19.48
2023-02-07T01:42:48.216Z,49.22
2023-02-07T01:45:50.734Z,7.47
2023-02-07T01:48:55.405Z,13.90
2023-02-07T01:51:59.826Z,7.22
2023-02-07T01:55:05.341Z,8.70
2023-02-07T01:58:09.278Z,6.15
2023-02-07T02:01:14.679Z,6.68
2023-02-07T02:04:17.204Z,5.50
2023-02-07T02:07:19.787Z,6.70
2023-02-07T02:10:23.436Z,6.93
2023-02-07T02:13:30.121Z,64.35
2023-02-07T02:16:35.847Z,21.58
2023-02-07T02:19:52.768Z,11.80
2023-02-07T02:23:07.107Z,7.50
2023-02-07T02:26:40.509Z,15.88
2023-02-07T02:30:03.780Z,11.63
2023-02-07T02:33:21.917Z,10.77
2023-02-07T02:36:28.772Z,25.33
2023-02-07T02:39:33.603Z,20.90
2023-02-07T02:42:38.457Z,23.73
2023-02-07T02:45:43.500Z,25.17
2023-02-07T02:48:47.443Z,31.77
2023-02-07T02:51:50.794Z,23.27
2023-02-07T02:54:53.319Z,30.33
2023-02-07T02:58:02.178Z,23.58
2023-02-07T03:01:09.175Z,24.20
2023-02-07T03:04:27.346Z,30.40
2023-02-07T03:07:40.480Z,25.92
2023-02-07T03:10:47.314Z,22.85
2023-02-07T03:13:56.157Z,24.95
2023-02-07T03:16:59.619Z,24.63
2023-02-07T03:20:06.218Z,28.73
2023-02-07T03:23:08.791Z,20.47
2023-02-07T03:26:11.358Z,19.33
2023-02-07T03:29:14.342Z,28.77
2023-02-07T03:32:17.497Z,19.63
2023-02-07T03:35:39.205Z,21.15
2023-02-07T03:38:41.969Z,23.30
2023-02-07T03:41:47.556Z,18.70
2023-02-07T03:44:50.152Z,23.45
2023-02-07T03:47:52.765Z,18.95
2023-02-07T03:50:56.649Z,23.83
2023-02-07T03:53:59.209Z,18.60
2023-02-07T03:57:01.731Z,20.45
2023-02-07T04:00:04.850Z,19.20
2023-02-07T04:03:07.452Z,22.73
2023-02-07T04:06:11.777Z,20.33
2023-02-07T04:09:14.321Z,22.92
2023-02-07T04:12:16.971Z,22.23
2023-02-07T04:15:19.548Z,21.23
2023-02-07T04:18:22.116Z,16.27
2023-02-07T04:21:26.073Z,24.38
2023-02-07T04:24:31.690Z,24.85
2023-02-07T04:27:34.282Z,27.05
2023-02-07T04:30:36.899Z,36.15
2023-02-07T04:33:39.517Z,23.60
2023-02-07T04:36:43.649Z,20.13
2023-02-07T04:39:46.871Z,34.55
2023-02-07T04:42:49.395Z,154.15
2023-02-07T04:45:51.951Z,45.28
2023-02-07T04:48:54.580Z,50.45
2023-02-07T04:51:58.530Z,50.60
2023-02-07T04:55:01.100Z,47.22
2023-02-07T04:58:03.753Z,27.98
2023-02-07T05:01:06.426Z,30.35
2023-02-07T05:04:09.095Z,35.25
2023-02-07T05:07:13.042Z,32.95
2023-02-07T05:10:15.672Z,31.85
2023-02-07T05:13:18.276Z,25.30
2023-02-07T05:16:21.000Z,30.98
2023-02-07T05:19:23.777Z,33.47
2023-02-07T05:22:27.728Z,35.78
2023-02-07T05:25:30.308Z,37.67
2023-02-07T05:28:32.837Z,31.90
2023-02-07T05:31:53.197Z,30.77
2023-02-07T05:34:55.857Z,33.33
2023-02-07T05:37:59.809Z,28.27
2023-02-07T05:41:02.381Z,32.88
2023-02-07T05:44:04.929Z,44.38
2023-02-07T05:47:07.454Z,43.55
2023-02-07T05:50:10.256Z,27.20
2023-02-07T05:53:14.138Z,31.98
2023-02-07T05:56:16.718Z,33.80
2023-02-07T05:59:19.338Z,34.05
2023-02-07T06:02:21.951Z,38.78
2023-02-07T06:05:24.814Z,47.58
2023-02-07T06:08:28.781Z,47.15
2023-02-07T06:11:31.319Z,36.00
2023-02-07T06:14:33.891Z,55.83
2023-02-07T06:17:36.430Z,51.72
2023-02-07T06:20:39.023Z,56.60
2023-02-07T06:23:42.917Z,63.92
2023-02-07T06:26:46.709Z,30.45
2023-02-07T06:29:49.341Z,45.38
2023-02-07T06:32:51.921Z,57.92
2023-02-07T06:35:55.857Z,54.15
2023-02-07T06:38:59.788Z,36.72
2023-02-07T06:42:02.340Z,35.97
2023-02-07T06:45:05.073Z,43.72
2023-02-07T06:48:07.836Z,45.58
2023-02-07T06:51:10.416Z,55.03
2023-02-07T06:54:14.377Z,47.92
2023-02-07T06:57:16.900Z,46.63
2023-02-07T07:00:21.866Z,29.67
2023-02-07T07:03:28.702Z,67.72
2023-02-07T07:06:31.256Z,75.05
2023-02-07T07:09:35.145Z,42.78
2023-02-07T07:12:37.751Z,51.85
2023-02-07T07:15:40.610Z,54.00
2023-02-07T07:18:43.258Z,89.97
2023-02-07T07:21:45.790Z,69.15
2023-02-07T07:24:50.192Z,53.90
2023-02-07T07:27:53.417Z,61.45
2023-02-07T07:30:56.041Z,72.97
2023-02-07T07:33:59.004Z,82.65
2023-02-07T07:37:01.535Z,94.68
2023-02-07T07:40:06.181Z,101.45
2023-02-07T07:43:08.769Z,98.15
2023-02-07T07:46:11.338Z,117.68
2023-02-07T07:49:13.922Z,162.85
2023-02-07T07:52:16.497Z,283.95
2023-02-07T07:55:20.528Z,280.25
2023-02-07T07:58:24.186Z,196.77
2023-02-07T08:01:26.772Z,394.13
2023-02-07T08:04:29.365Z,269.00
2023-02-07T08:07:31.952Z,189.95
2023-02-07T08:10:35.971Z,298.58
2023-02-07T08:13:38.598Z,169.55
2023-02-07T08:16:41.181Z,247.98
2023-02-07T08:19:43.740Z,389.23
2023-02-07T08:22:46.269Z,376.08
2023-02-07T08:25:50.610Z,422.27
2023-02-07T08:28:53.233Z,390.92
2023-02-07T08:31:55.805Z,581.03
2023-02-07T08:34:58.329Z,772.38
2023-02-07T08:38:00.912Z,556.50
2023-02-07T08:41:04.997Z,446.50
2023-02-07T08:44:07.522Z,408.98
2023-02-07T08:47:10.087Z,466.85
2023-02-07T08:50:13.062Z,272.02
2023-02-07T08:53:15.778Z,436.92
2023-02-07T08:56:19.691Z,289.02
2023-02-07T08:59:22.279Z,440.10
2023-02-07T09:02:24.959Z,414.48
2023-02-07T09:05:27.555Z,325.25
2023-02-07T09:08:30.127Z,337.92
2023-02-07T09:11:34.179Z,477.40
2023-02-07T09:14:36.789Z,234.02
2023-02-07T09:17:39.319Z,541.95
2023-02-07T09:20:41.899Z,567.05
2023-02-07T09:23:44.494Z,443.13
2023-02-07T09:26:48.384Z,423.45
2023-02-07T09:29:50.920Z,235.23
2023-02-07T09:32:53.440Z,211.30
2023-02-07T09:35:56.050Z,221.13
2023-02-07T09:38:58.731Z,247.27
2023-02-07T09:42:08.725Z,295.77
2023-02-07T09:45:13.139Z,169.68
2023-02-07T09:48:17.482Z,288.17
2023-02-07T09:51:20.638Z,188.93
2023-02-07T09:54:24.550Z,139.73
2023-02-07T09:57:29.618Z,223.88
2023-02-07T10:00:32.836Z,110.13
2023-02-07T10:03:36.035Z,148.50
2023-02-07T10:06:38.567Z,76.05
2023-02-07T10:09:42.001Z,234.55
2023-02-07T10:12:59.339Z,88.32
2023-02-07T10:16:11.526Z,69.70
2023-02-07T10:19:19.794Z,80.28
2023-02-07T10:22:25.413Z,84.68
2023-02-07T10:25:33.860Z,65.75
2023-02-07T10:28:49.496Z,65.25
2023-02-07T10:31:53.637Z,62.20
2023-02-07T10:34:57.265Z,59.63
2023-02-07T10:38:01.954Z,62.15
2023-02-07T10:41:05.642Z,71.85
2023-02-07T10:44:11.044Z,78.28
2023-02-07T10:47:15.144Z,59.83
2023-02-07T10:50:29.456Z,68.95
2023-02-07T10:53:54.235Z,55.90
2023-02-07T10:57:02.241Z,58.78
2023-02-07T11:00:26.815Z,72.25
2023-02-07T11:03:30.827Z,71.72
2023-02-07T11:06:34.122Z,69.60
2023-02-07T11:09:38.147Z,93.55
2023-02-07T11:12:46.183Z,59.25
2023-02-07T11:15:55.481Z,62.85
2023-02-07T11:18:59.282Z,61.78
2023-02-07T11:22:09.559Z,58.97
2023-02-07T11:25:12.173Z,58.65
2023-02-07T11:28:17.678Z,58.15
2023-02-07T11:31:26.735Z,54.05
2023-02-07T11:34:41.118Z,52.58
2023-02-07T11:37:48.458Z,58.13
2023-02-07T11:40:52.308Z,47.35
2023-02-07T11:43:56.933Z,47.97
2023-02-07T11:47:04.518Z,50.72
2023-02-07T11:53:24.245Z,53.20
2023-02-07T11:56:28.204Z,52.80
2023-02-07T11:59:32.191Z,47.60
2023-02-07T12:02:36.213Z,42.65
2023-02-07T12:05:40.152Z,43.78
2023-02-07T12:08:42.991Z,46.65
2023-02-07T12:11:45.582Z,38.65
2023-02-07T12:14:50.470Z,43.42
2023-02-07T12:17:58.762Z,39.13
2023-02-07T12:21:03.414Z,35.25
2023-02-07T12:24:08.544Z,43.08
2023-02-07T12:27:14.635Z,41.17
2023-02-07T12:30:18.942Z,37.63
2023-02-07T12:33:27.268Z,36.88
2023-02-07T12:36:32.655Z,38.75
2023-02-07T12:39:36.832Z,35.25
2023-02-07T12:42:40.307Z,30.65
2023-02-07T12:45:54.975Z,28.88
2023-02-07T12:49:14.170Z,29.77
2023-02-07T12:52:21.438Z,30.20
2023-02-07T12:55:30.034Z,32.63
2023-02-07T12:58:42.832Z,26.85
2023-02-07T13:01:46.795Z,26.40
2023-02-07T13:05:02.137Z,25.85
2023-02-07T13:08:11.125Z,17.90
2023-02-07T13:11:20.550Z,26.30
2023-02-07T13:14:31.907Z,27.33
2023-02-07T13:17:46.285Z,24.85
2023-02-07T13:20:58.856Z,22.52
2023-02-07T13:24:02.351Z,23.42
2023-02-07T13:27:06.932Z,27.10
2023-02-07T13:30:13.660Z,25.52
2023-02-07T13:33:25.880Z,27.33
2023-02-07T13:36:36.601Z,28.02
2023-02-07T13:39:43.728Z,25.90
2023-02-07T13:42:47.809Z,26.05
2023-02-07T13:45:53.319Z,20.80
2023-02-07T13:48:57.383Z,23.17
2023-02-07T13:52:03.105Z,18.40
2023-02-07T13:55:11.333Z,31.10
2023-02-07T13:59:05.367Z,24.05
2023-02-07T14:02:13.495Z,22.77
2023-02-07T14:05:21.559Z,20.33
2023-02-07T14:08:25.499Z,26.20
2023-02-07T14:11:34.325Z,20.75
2023-02-07T14:14:37.844Z,19.90
2023-02-07T14:17:59.789Z,17.17
2023-02-07T14:21:02.548Z,17.02
2023-02-07T14:24:34.408Z,20.40
2023-02-07T14:27:38.016Z,21.15
2023-02-07T14:31:00.334Z,24.67
2023-02-07T14:34:13.851Z,16.63
2023-02-07T14:37:22.236Z,19.13
2023-02-07T14:40:31.483Z,19.08
2023-02-07T14:43:42.216Z,16.77
2023-02-07T14:46:48.988Z,19.58
2023-02-07T14:49:52.241Z,15.52
2023-02-07T14:52:54.835Z,16.55
2023-02-07T14:56:01.472Z,18.15
2023-02-07T14:59:03.989Z,17.27
2023-02-07T15:02:35.182Z,18.15
2023-02-07T15:05:38.821Z,20.73
2023-02-07T15:08:41.344Z,20.15
2023-02-07T15:11:47.752Z,23.65
2023-02-07T15:14:53.008Z,29.02
2023-02-07T15:17:57.192Z,23.13
2023-02-07T15:20:59.740Z,23.55
2023-02-07T15:24:04.642Z,24.35
2023-02-07T15:27:19.973Z,22.98
2023-02-07T15:30:22.524Z,22.23
2023-02-07T15:33:25.783Z,21.90
2023-02-07T15:36:31.246Z,22.52
2023-02-07T15:39:33.828Z,24.23
2023-02-07T15:42:37.713Z,24.55
2023-02-07T15:45:40.717Z,26.77
2023-02-07T15:48:48.668Z,24.67
2023-02-07T15:51:51.185Z,20.38
2023-02-07T15:54:54.478Z,20.38
2023-02-07T15:57:58.394Z,19.08
2023-02-07T16:01:02.512Z,21.30
2023-02-07T16:04:05.149Z,18.83
2023-02-07T16:07:13.458Z,18.15
2023-02-07T16:10:20.312Z,15.75
2023-02-07T16:13:24.544Z,16.60
2023-02-07T16:16:27.915Z,16.23
2023-02-07T16:19:30.911Z,19.80
2023-02-07T16:22:33.805Z,19.50
2023-02-07T16:25:36.889Z,16.48
2023-02-07T16:28:40.784Z,20.23
2023-02-07T16:31:43.692Z,26.55
2023-02-07T16:34:58.980Z,18.00
2023-02-07T16:38:02.328Z,20.55
2023-02-07T16:41:05.135Z,20.80
2023-02-07T16:44:17.859Z,24.42
2023-02-07T16:47:21.465Z,22.27
2023-02-07T16:50:25.040Z,22.02
2023-02-07T16:53:27.746Z,29.45
2023-02-07T16:56:30.276Z,26.33
2023-02-07T16:59:34.165Z,19.38
2023-02-07T17:02:36.725Z,21.08
2023-02-07T17:05:39.274Z,22.73
2023-02-07T17:08:41.873Z,22.55
2023-02-07T17:11:44.416Z,22.67
2023-02-07T17:14:48.294Z,21.33
2023-02-07T17:17:52.597Z,24.73
2023-02-07T17:20:55.909Z,22.40
2023-02-07T17:23:59.304Z,23.67
2023-02-07T17:27:01.832Z,24.42
2023-02-07T17:30:11.280Z,24.83
2023-02-07T17:33:13.820Z,22.73
2023-02-07T17:36:16.746Z,19.77
2023-02-07T17:39:19.486Z,25.88
2023-02-07T17:42:22.007Z,25.13
2023-02-07T17:45:26.280Z,18.45
2023-02-07T17:48:30.335Z,23.63
2023-02-07T17:51:32.910Z,22.33
2023-02-07T17:54:35.468Z,22.73
2023-02-07T17:57:38.059Z,23.63
2023-02-07T18:00:42.297Z,21.27
2023-02-07T18:03:45.058Z,20.98
2023-02-07T18:06:47.922Z,22.92
2023-02-07T18:09:50.492Z,18.73
2023-02-07T18:12:53.033Z,22.75
2023-02-07T18:15:57.583Z,24.35
2023-02-07T18:19:00.218Z,21.80
2023-02-07T18:22:02.746Z,24.30
2023-02-07T18:25:05.736Z,22.58
2023-02-07T18:28:08.321Z,25.33
2023-02-07T18:31:13.387Z,20.88
2023-02-07T18:34:17.188Z,24.17
2023-02-07T18:37:21.111Z,24.52
2023-02-07T18:40:23.640Z,20.60
2023-02-07T18:43:26.246Z,21.48
2023-02-07T18:46:31.677Z,20.27
2023-02-07T18:49:34.494Z,22.70
2023-02-07T18:52:37.034Z,19.55
2023-02-07T18:55:39.574Z,26.48
2023-02-07T18:58:42.175Z,24.40
2023-02-07T19:01:48.172Z,24.10
2023-02-07T19:04:50.849Z,21.77
2023-02-07T19:07:55.025Z,23.20
2023-02-07T19:10:58.027Z,23.42
2023-02-07T19:14:00.569Z,25.30
2023-02-07T19:17:04.493Z,21.13
2023-02-07T19:20:07.748Z,28.08
2023-02-07T19:23:10.331Z,22.55
2023-02-07T19:26:12.931Z,24.40
2023-02-07T19:29:15.922Z,24.00
2023-02-07T19:32:19.902Z,23.27
2023-02-07T19:35:22.447Z,20.50
2023-02-07T19:38:24.964Z,23.63
2023-02-07T19:41:28.305Z,20.23
2023-02-07T19:44:30.948Z,23.25
2023-02-07T19:47:34.895Z,22.17
2023-02-07T19:50:38.036Z,25.33
2023-02-07T19:53:41.007Z,22.10
2023-02-07T19:56:43.547Z,24.85
2023-02-07T19:59:48.258Z,21.35
2023-02-07T20:02:52.257Z,20.75
2023-02-07T20:05:54.780Z,25.00
2023-02-07T20:08:57.440Z,30.30
2023-02-07T20:11:59.981Z,26.85
2023-02-07T20:15:02.581Z,29.35
2023-02-07T20:18:06.634Z,37.25
2023-02-07T20:21:11.737Z,30.75
2023-02-07T20:24:14.406Z,31.17
2023-02-07T20:27:16.989Z,28.75
2023-02-07T20:30:19.657Z,28.23
2023-02-07T20:33:23.960Z,27.40
2023-02-07T20:36:26.811Z,28.77
2023-02-07T20:39:31.845Z,25.98
2023-02-07T20:42:34.392Z,28.17
2023-02-07T20:45:36.945Z,32.30
2023-02-07T20:48:40.909Z,28.73
2023-02-07T20:51:44.254Z,26.15
2023-02-07T20:54:47.645Z,29.33
2023-02-07T20:57:50.234Z,28.10
2023-02-07T21:00:52.880Z,28.52
2023-02-07T21:03:58.012Z,23.17
2023-02-07T21:07:01.045Z,21.67
2023-02-07T21:10:03.867Z,27.48
2023-02-07T21:13:06.635Z,24.02
2023-02-07T21:16:09.276Z,24.33
2023-02-07T21:19:13.236Z,23.90
2023-02-07T21:22:15.766Z,25.92
2023-02-07T21:25:18.450Z,26.17
2023-02-07T21:28:21.109Z,24.13
2023-02-07T21:31:23.787Z,23.30
2023-02-07T21:34:27.694Z,26.08
2023-02-07T21:37:30.278Z,25.15
2023-02-07T21:40:32.831Z,24.65
2023-02-07T21:43:35.607Z,22.75
2023-02-07T21:46:39.273Z,26.73
2023-02-07T21:49:44.725Z,25.02
2023-02-07T21:52:47.425Z,25.85
2023-02-07T21:55:50.012Z,28.52
2023-02-07T21:58:54.137Z,23.65
2023-02-07T22:01:58.042Z,23.92
2023-02-07T22:05:01.942Z,25.92
2023-02-07T22:08:04.462Z,27.13
2023-02-07T22:11:08.499Z,24.80
2023-02-07T22:14:11.944Z,25.25
2023-02-07T22:17:14.482Z,26.80
2023-02-07T22:20:18.446Z,31.90
2023-02-07T22:23:20.972Z,30.83
2023-02-07T22:26:23.920Z,34.90
2023-02-07T22:29:26.505Z,32.60
2023-02-07T22:32:29.076Z,37.25
2023-02-07T22:35:37.379Z,35.70
2023-02-07T22:38:39.936Z,33.67
2023-02-07T22:41:42.511Z,29.10
2023-02-07T22:44:45.081Z,26.83
2023-02-07T22:47:47.662Z,31.40
2023-02-07T22:50:51.591Z,34.58
2023-02-07T22:53:54.881Z,33.13
2023-02-07T22:56:57.467Z,29.15
2023-02-07T23:00:00.901Z,46.75
2023-02-07T23:03:03.433Z,40.20
2023-02-07T23:06:07.826Z,31.23
2023-02-07T23:09:10.766Z,28.58
2023-02-07T23:12:13.348Z,29.38
2023-02-07T23:15:15.888Z,27.73
2023-02-07T23:18:18.453Z,25.73
2023-02-07T23:21:22.575Z,25.65
2023-02-07T23:24:25.158Z,26.70
2023-02-07T23:27:27.947Z,25.95
2023-02-07T23:30:30.615Z,28.58
2023-02-07T23:33:33.207Z,24.75
2023-02-07T23:36:37.165Z,26.73
2023-02-07T23:39:39.688Z,26.75
2023-02-07T23:42:42.211Z,28.05
2023-02-07T23:45:44.790Z,27.23
2023-02-07T23:48:47.421Z,26.50
2023-02-07T23:51:51.332Z,25.90
2023-02-07T23:54:53.917Z,29.50
2023-02-07T23:57:56.493Z,28.33
